sensor_id;sensor_type;location;lat;lon;timestamp;P1;durP1;ratioP1;P2;durP2;ratioP2
25657;SDS011;13517;59.320;18.042;2024-02-26T00:01:25;156.63;;;18.85;;
25657;SDS011;13517;59.320;18.042;2024-02-26T00:03:51;224.38;;;19.00;;
25657;SDS011;13517;59.320;18.042;2024-02-26T00:06:17;172.18;;;18.55;;
25657;SDS011;13517;59.320;18.042;2024-02-26T00:08:43;158.20;;;19.40;;
25657;SDS011;13517;59.320;18.042;2024-02-26T00:11:09;103.57;;;17.15;;
25657;SDS011;13517;59.320;18.042;2024-02-26T00:13:34;202.60;;;20.25;;
25657;SDS011;13517;59.320;18.042;2024-02-26T00:16:00;193.77;;;18.70;;
25657;SDS011;13517;59.320;18.042;2024-02-26T00:18:26;176.95;;;17.17;;
25657;SDS011;13517;59.320;18.042;2024-02-26T00:20:51;94.35;;;16.45;;
25657;SDS011;13517;59.320;18.042;2024-02-26T00:23:16;47.30;;;14.65;;
25657;SDS011;13517;59.320;18.042;2024-02-26T00:25:42;69.50;;;14.65;;
25657;SDS011;13517;59.320;18.042;2024-02-26T00:28:08;52.08;;;15.10;;
25657;SDS011;13517;59.320;18.042;2024-02-26T00:30:35;64.90;;;15.32;;
25657;SDS011;13517;59.320;18.042;2024-02-26T00:33:00;46.38;;;14.80;;
25657;SDS011;13517;59.320;18.042;2024-02-26T00:35:26;39.88;;;15.60;;
25657;SDS011;13517;59.320;18.042;2024-02-26T00:37:51;39.25;;;13.77;;
25657;SDS011;13517;59.320;18.042;2024-02-26T00:40:16;40.35;;;14.43;;
25657;SDS011;13517;59.320;18.042;2024-02-26T00:42:42;43.17;;;15.07;;
25657;SDS011;13517;59.320;18.042;2024-02-26T00:45:11;36.03;;;13.55;;
25657;SDS011;13517;59.320;18.042;2024-02-26T00:47:39;34.10;;;14.15;;
25657;SDS011;13517;59.320;18.042;2024-02-26T00:50:09;36.40;;;14.10;;
25657;SDS011;13517;59.320;18.042;2024-02-26T00:52:35;30.77;;;12.95;;
25657;SDS011;13517;59.320;18.042;2024-02-26T00:55:01;37.90;;;13.65;;
25657;SDS011;13517;59.320;18.042;2024-02-26T00:57:27;32.30;;;13.35;;
25657;SDS011;13517;59.320;18.042;2024-02-26T00:59:52;37.78;;;15.25;;
25657;SDS011;13517;59.320;18.042;2024-02-26T01:02:20;33.47;;;13.57;;
25657;SDS011;13517;59.320;18.042;2024-02-26T01:04:45;42.38;;;17.50;;
25657;SDS011;13517;59.320;18.042;2024-02-26T01:07:11;35.35;;;14.70;;
25657;SDS011;13517;59.320;18.042;2024-02-26T01:09:36;37.15;;;14.35;;
25657;SDS011;13517;59.320;18.042;2024-02-26T01:12:01;32.67;;;13.30;;
25657;SDS011;13517;59.320;18.042;2024-02-26T01:14:27;41.80;;;15.38;;
25657;SDS011;13517;59.320;18.042;2024-02-26T01:16:53;45.58;;;15.43;;
25657;SDS011;13517;59.320;18.042;2024-02-26T01:19:19;89.82;;;16.60;;
25657;SDS011;13517;59.320;18.042;2024-02-26T01:21:44;40.80;;;14.38;;
25657;SDS011;13517;59.320;18.042;2024-02-26T01:24:09;45.13;;;16.17;;
25657;SDS011;13517;59.320;18.042;2024-02-26T01:26:35;58.28;;;17.63;;
25657;SDS011;13517;59.320;18.042;2024-02-26T01:29:01;51.70;;;18.33;;
25657;SDS011;13517;59.320;18.042;2024-02-26T01:31:26;51.95;;;16.90;;
25657;SDS011;13517;59.320;18.042;2024-02-26T01:33:52;49.17;;;18.13;;
25657;SDS011;13517;59.320;18.042;2024-02-26T01:36:17;44.67;;;16.30;;
25657;SDS011;13517;59.320;18.042;2024-02-26T01:38:43;49.65;;;16.17;;
25657;SDS011;13517;59.320;18.042;2024-02-26T01:41:08;40.95;;;16.92;;
25657;SDS011;13517;59.320;18.042;2024-02-26T01:43:34;35.38;;;15.43;;
25657;SDS011;13517;59.320;18.042;2024-02-26T01:45:59;34.35;;;14.35;;
25657;SDS011;13517;59.320;18.042;2024-02-26T01:48:26;35.47;;;14.18;;
25657;SDS011;13517;59.320;18.042;2024-02-26T01:50:51;33.63;;;14.73;;
25657;SDS011;13517;59.320;18.042;2024-02-26T01:53:17;33.38;;;15.13;;
25657;SDS011;13517;59.320;18.042;2024-02-26T01:55:44;32.90;;;16.00;;
25657;SDS011;13517;59.320;18.042;2024-02-26T01:58:10;34.83;;;14.73;;
25657;SDS011;13517;59.320;18.042;2024-02-26T02:00:36;33.30;;;14.90;;
25657;SDS011;13517;59.320;18.042;2024-02-26T02:03:03;29.42;;;14.10;;
25657;SDS011;13517;59.320;18.042;2024-02-26T02:05:30;30.83;;;14.27;;
25657;SDS011;13517;59.320;18.042;2024-02-26T02:07:56;34.05;;;15.75;;
25657;SDS011;13517;59.320;18.042;2024-02-26T02:10:23;34.70;;;16.13;;
25657;SDS011;13517;59.320;18.042;2024-02-26T02:12:50;33.67;;;16.73;;
25657;SDS011;13517;59.320;18.042;2024-02-26T02:15:16;26.75;;;14.65;;
25657;SDS011;13517;59.320;18.042;2024-02-26T02:17:42;32.25;;;15.55;;
25657;SDS011;13517;59.320;18.042;2024-02-26T02:20:16;34.50;;;15.95;;
25657;SDS011;13517;59.320;18.042;2024-02-26T02:22:46;32.88;;;16.17;;
25657;SDS011;13517;59.320;18.042;2024-02-26T02:25:11;31.60;;;16.27;;
25657;SDS011;13517;59.320;18.042;2024-02-26T02:27:37;28.25;;;14.63;;
25657;SDS011;13517;59.320;18.042;2024-02-26T02:30:03;36.35;;;15.60;;
25657;SDS011;13517;59.320;18.042;2024-02-26T02:32:29;31.77;;;15.63;;
25657;SDS011;13517;59.320;18.042;2024-02-26T02:34:55;33.97;;;16.83;;
25657;SDS011;13517;59.320;18.042;2024-02-26T02:37:21;30.80;;;15.82;;
25657;SDS011;13517;59.320;18.042;2024-02-26T02:39:47;34.03;;;16.65;;
25657;SDS011;13517;59.320;18.042;2024-02-26T02:42:12;38.72;;;16.98;;
25657;SDS011;13517;59.320;18.042;2024-02-26T02:44:38;36.63;;;16.73;;
25657;SDS011;13517;59.320;18.042;2024-02-26T02:47:03;32.33;;;16.98;;
25657;SDS011;13517;59.320;18.042;2024-02-26T02:49:28;35.28;;;16.60;;
25657;SDS011;13517;59.320;18.042;2024-02-26T02:51:54;36.65;;;16.70;;
25657;SDS011;13517;59.320;18.042;2024-02-26T02:54:20;40.83;;;17.27;;
25657;SDS011;13517;59.320;18.042;2024-02-26T02:56:45;37.35;;;16.00;;
25657;SDS011;13517;59.320;18.042;2024-02-26T02:59:11;38.63;;;17.13;;
25657;SDS011;13517;59.320;18.042;2024-02-26T03:01:36;38.50;;;18.08;;
25657;SDS011;13517;59.320;18.042;2024-02-26T03:04:01;32.47;;;17.83;;
25657;SDS011;13517;59.320;18.042;2024-02-26T03:06:27;43.40;;;17.30;;
25657;SDS011;13517;59.320;18.042;2024-02-26T03:08:53;33.58;;;17.50;;
25657;SDS011;13517;59.320;18.042;2024-02-26T03:11:19;36.10;;;18.00;;
25657;SDS011;13517;59.320;18.042;2024-02-26T03:13:45;36.92;;;18.20;;
25657;SDS011;13517;59.320;18.042;2024-02-26T03:16:11;34.45;;;17.63;;
25657;SDS011;13517;59.320;18.042;2024-02-26T03:18:38;31.95;;;16.45;;
25657;SDS011;13517;59.320;18.042;2024-02-26T03:21:04;41.97;;;18.88;;
25657;SDS011;13517;59.320;18.042;2024-02-26T03:23:30;33.47;;;17.33;;
25657;SDS011;13517;59.320;18.042;2024-02-26T03:25:57;37.55;;;17.92;;
25657;SDS011;13517;59.320;18.042;2024-02-26T03:28:23;34.05;;;17.70;;
25657;SDS011;13517;59.320;18.042;2024-02-26T03:30:48;32.75;;;17.98;;
25657;SDS011;13517;59.320;18.042;2024-02-26T03:33:14;35.42;;;17.00;;
25657;SDS011;13517;59.320;18.042;2024-02-26T03:35:39;38.25;;;18.52;;
25657;SDS011;13517;59.320;18.042;2024-02-26T03:38:05;39.55;;;18.08;;
25657;SDS011;13517;59.320;18.042;2024-02-26T03:40:30;33.50;;;18.20;;
25657;SDS011;13517;59.320;18.042;2024-02-26T03:42:56;36.08;;;18.38;;
25657;SDS011;13517;59.320;18.042;2024-02-26T03:45:22;34.88;;;18.25;;
25657;SDS011;13517;59.320;18.042;2024-02-26T03:47:48;41.47;;;19.77;;
25657;SDS011;13517;59.320;18.042;2024-02-26T03:50:13;36.53;;;18.67;;
25657;SDS011;13517;59.320;18.042;2024-02-26T03:52:38;33.35;;;17.95;;
25657;SDS011;13517;59.320;18.042;2024-02-26T03:55:04;41.40;;;18.85;;
25657;SDS011;13517;59.320;18.042;2024-02-26T03:57:30;31.23;;;17.20;;
25657;SDS011;13517;59.320;18.042;2024-02-26T03:59:55;40.22;;;17.52;;
25657;SDS011;13517;59.320;18.042;2024-02-26T04:02:21;35.28;;;17.95;;
25657;SDS011;13517;59.320;18.042;2024-02-26T04:04:48;33.42;;;18.15;;
25657;SDS011;13517;59.320;18.042;2024-02-26T04:07:14;29.58;;;16.15;;
25657;SDS011;13517;59.320;18.042;2024-02-26T04:09:39;29.23;;;15.77;;
25657;SDS011;13517;59.320;18.042;2024-02-26T04:12:05;31.85;;;16.45;;
25657;SDS011;13517;59.320;18.042;2024-02-26T04:14:30;37.00;;;18.67;;
25657;SDS011;13517;59.320;18.042;2024-02-26T04:16:56;31.52;;;17.50;;
25657;SDS011;13517;59.320;18.042;2024-02-26T04:19:21;35.03;;;18.45;;
25657;SDS011;13517;59.320;18.042;2024-02-26T04:21:47;38.55;;;19.95;;
25657;SDS011;13517;59.320;18.042;2024-02-26T04:24:12;39.20;;;20.67;;
25657;SDS011;13517;59.320;18.042;2024-02-26T04:26:38;33.50;;;19.30;;
25657;SDS011;13517;59.320;18.042;2024-02-26T04:29:03;37.80;;;19.70;;
25657;SDS011;13517;59.320;18.042;2024-02-26T04:31:29;37.00;;;19.58;;
25657;SDS011;13517;59.320;18.042;2024-02-26T04:33:56;35.67;;;18.23;;
25657;SDS011;13517;59.320;18.042;2024-02-26T04:36:21;38.28;;;18.67;;
25657;SDS011;13517;59.320;18.042;2024-02-26T04:38:47;36.53;;;18.58;;
25657;SDS011;13517;59.320;18.042;2024-02-26T04:41:12;32.50;;;17.55;;
25657;SDS011;13517;59.320;18.042;2024-02-26T04:43:38;37.88;;;18.55;;
25657;SDS011;13517;59.320;18.042;2024-02-26T04:46:07;38.15;;;19.80;;
25657;SDS011;13517;59.320;18.042;2024-02-26T04:48:34;40.15;;;19.73;;
25657;SDS011;13517;59.320;18.042;2024-02-26T04:51:00;37.65;;;20.10;;
25657;SDS011;13517;59.320;18.042;2024-02-26T04:53:25;36.30;;;19.90;;
25657;SDS011;13517;59.320;18.042;2024-02-26T04:55:51;38.95;;;20.73;;
25657;SDS011;13517;59.320;18.042;2024-02-26T04:58:16;42.85;;;21.50;;
25657;SDS011;13517;59.320;18.042;2024-02-26T05:00:42;41.97;;;21.60;;
25657;SDS011;13517;59.320;18.042;2024-02-26T05:03:07;43.35;;;21.23;;
25657;SDS011;13517;59.320;18.042;2024-02-26T05:05:37;35.67;;;19.70;;
25657;SDS011;13517;59.320;18.042;2024-02-26T05:08:03;40.10;;;21.17;;
25657;SDS011;13517;59.320;18.042;2024-02-26T05:10:29;37.28;;;19.25;;
25657;SDS011;13517;59.320;18.042;2024-02-26T05:12:54;39.35;;;21.10;;
25657;SDS011;13517;59.320;18.042;2024-02-26T05:15:19;38.83;;;19.65;;
25657;SDS011;13517;59.320;18.042;2024-02-26T05:17:45;36.67;;;20.83;;
25657;SDS011;13517;59.320;18.042;2024-02-26T05:20:10;37.40;;;19.70;;
25657;SDS011;13517;59.320;18.042;2024-02-26T05:22:36;34.20;;;19.67;;
25657;SDS011;13517;59.320;18.042;2024-02-26T05:25:02;35.53;;;19.33;;
25657;SDS011;13517;59.320;18.042;2024-02-26T05:27:28;40.60;;;20.80;;
25657;SDS011;13517;59.320;18.042;2024-02-26T05:29:54;36.58;;;19.70;;
25657;SDS011;13517;59.320;18.042;2024-02-26T05:32:19;33.10;;;19.00;;
25657;SDS011;13517;59.320;18.042;2024-02-26T05:34:44;39.15;;;20.70;;
25657;SDS011;13517;59.320;18.042;2024-02-26T05:37:10;34.72;;;19.38;;
25657;SDS011;13517;59.320;18.042;2024-02-26T05:39:36;38.72;;;19.02;;
25657;SDS011;13517;59.320;18.042;2024-02-26T05:42:02;36.35;;;20.88;;
25657;SDS011;13517;59.320;18.042;2024-02-26T05:44:28;38.45;;;18.35;;
25657;SDS011;13517;59.320;18.042;2024-02-26T05:46:53;36.97;;;18.92;;
25657;SDS011;13517;59.320;18.042;2024-02-26T05:49:19;36.78;;;18.48;;
25657;SDS011;13517;59.320;18.042;2024-02-26T05:51:44;34.63;;;18.10;;
25657;SDS011;13517;59.320;18.042;2024-02-26T05:54:10;39.72;;;20.15;;
25657;SDS011;13517;59.320;18.042;2024-02-26T05:56:36;41.50;;;20.08;;
25657;SDS011;13517;59.320;18.042;2024-02-26T05:59:01;44.42;;;19.67;;
25657;SDS011;13517;59.320;18.042;2024-02-26T06:01:26;39.75;;;19.02;;
25657;SDS011;13517;59.320;18.042;2024-02-26T06:03:52;35.95;;;18.55;;
25657;SDS011;13517;59.320;18.042;2024-02-26T06:06:17;41.33;;;17.67;;
25657;SDS011;13517;59.320;18.042;2024-02-26T06:08:43;40.22;;;19.40;;
25657;SDS011;13517;59.320;18.042;2024-02-26T06:11:08;36.67;;;18.90;;
25657;SDS011;13517;59.320;18.042;2024-02-26T06:13:35;34.10;;;17.98;;
25657;SDS011;13517;59.320;18.042;2024-02-26T06:16:00;36.20;;;20.63;;
25657;SDS011;13517;59.320;18.042;2024-02-26T06:18:26;36.95;;;18.65;;
25657;SDS011;13517;59.320;18.042;2024-02-26T06:20:51;38.30;;;19.52;;
25657;SDS011;13517;59.320;18.042;2024-02-26T06:23:17;36.42;;;19.10;;
25657;SDS011;13517;59.320;18.042;2024-02-26T06:25:42;35.08;;;18.58;;
25657;SDS011;13517;59.320;18.042;2024-02-26T06:28:08;33.70;;;17.83;;
25657;SDS011;13517;59.320;18.042;2024-02-26T06:30:33;35.90;;;17.98;;
25657;SDS011;13517;59.320;18.042;2024-02-26T06:33:00;37.85;;;18.30;;
25657;SDS011;13517;59.320;18.042;2024-02-26T06:35:26;31.73;;;17.13;;
25657;SDS011;13517;59.320;18.042;2024-02-26T06:37:51;32.20;;;17.40;;
25657;SDS011;13517;59.320;18.042;2024-02-26T06:40:18;34.13;;;18.20;;
25657;SDS011;13517;59.320;18.042;2024-02-26T06:42:46;34.03;;;17.08;;
25657;SDS011;13517;59.320;18.042;2024-02-26T06:45:12;34.40;;;17.60;;
25657;SDS011;13517;59.320;18.042;2024-02-26T06:47:37;40.70;;;19.73;;
25657;SDS011;13517;59.320;18.042;2024-02-26T06:50:03;35.15;;;18.38;;
25657;SDS011;13517;59.320;18.042;2024-02-26T06:52:28;35.58;;;18.10;;
25657;SDS011;13517;59.320;18.042;2024-02-26T06:54:54;34.72;;;18.40;;
25657;SDS011;13517;59.320;18.042;2024-02-26T06:57:20;34.55;;;19.05;;
25657;SDS011;13517;59.320;18.042;2024-02-26T06:59:45;33.28;;;17.70;;
25657;SDS011;13517;59.320;18.042;2024-02-26T07:02:12;34.88;;;17.95;;
25657;SDS011;13517;59.320;18.042;2024-02-26T07:04:38;34.25;;;18.55;;
25657;SDS011;13517;59.320;18.042;2024-02-26T07:07:03;41.03;;;18.60;;
25657;SDS011;13517;59.320;18.042;2024-02-26T07:09:29;37.53;;;18.73;;
25657;SDS011;13517;59.320;18.042;2024-02-26T07:11:54;38.22;;;18.55;;
25657;SDS011;13517;59.320;18.042;2024-02-26T07:14:20;35.30;;;18.48;;
25657;SDS011;13517;59.320;18.042;2024-02-26T07:16:45;37.95;;;20.08;;
25657;SDS011;13517;59.320;18.042;2024-02-26T07:19:11;37.08;;;18.67;;
25657;SDS011;13517;59.320;18.042;2024-02-26T07:21:36;34.45;;;18.17;;
25657;SDS011;13517;59.320;18.042;2024-02-26T07:24:02;35.10;;;17.90;;
25657;SDS011;13517;59.320;18.042;2024-02-26T07:26:27;34.75;;;18.05;;
25657;SDS011;13517;59.320;18.042;2024-02-26T07:28:55;33.67;;;17.38;;
25657;SDS011;13517;59.320;18.042;2024-02-26T07:31:20;37.20;;;17.90;;
25657;SDS011;13517;59.320;18.042;2024-02-26T07:33:46;27.95;;;17.00;;
25657;SDS011;13517;59.320;18.042;2024-02-26T07:36:11;32.85;;;17.75;;
25657;SDS011;13517;59.320;18.042;2024-02-26T07:38:37;32.13;;;18.17;;
25657;SDS011;13517;59.320;18.042;2024-02-26T07:41:02;35.90;;;18.15;;
25657;SDS011;13517;59.320;18.042;2024-02-26T07:43:28;33.28;;;17.13;;
25657;SDS011;13517;59.320;18.042;2024-02-26T07:45:54;31.05;;;17.30;;
25657;SDS011;13517;59.320;18.042;2024-02-26T07:48:19;32.08;;;17.13;;
25657;SDS011;13517;59.320;18.042;2024-02-26T07:50:45;32.55;;;17.08;;
25657;SDS011;13517;59.320;18.042;2024-02-26T07:53:11;29.83;;;17.80;;
25657;SDS011;13517;59.320;18.042;2024-02-26T07:55:36;32.53;;;16.65;;
25657;SDS011;13517;59.320;18.042;2024-02-26T07:58:01;33.03;;;17.55;;
25657;SDS011;13517;59.320;18.042;2024-02-26T08:00:27;35.05;;;18.15;;
25657;SDS011;13517;59.320;18.042;2024-02-26T08:02:53;35.42;;;18.30;;
25657;SDS011;13517;59.320;18.042;2024-02-26T08:05:18;35.65;;;17.83;;
25657;SDS011;13517;59.320;18.042;2024-02-26T08:07:44;35.08;;;18.35;;
25657;SDS011;13517;59.320;18.042;2024-02-26T08:10:09;39.00;;;19.17;;
25657;SDS011;13517;59.320;18.042;2024-02-26T08:12:36;38.75;;;19.40;;
25657;SDS011;13517;59.320;18.042;2024-02-26T08:15:01;41.50;;;20.85;;
25657;SDS011;13517;59.320;18.042;2024-02-26T08:17:27;41.42;;;19.48;;
25657;SDS011;13517;59.320;18.042;2024-02-26T08:19:52;38.15;;;18.92;;
25657;SDS011;13517;59.320;18.042;2024-02-26T08:22:18;38.88;;;18.05;;
25657;SDS011;13517;59.320;18.042;2024-02-26T08:24:44;36.47;;;17.88;;
25657;SDS011;13517;59.320;18.042;2024-02-26T08:27:09;38.65;;;18.20;;
25657;SDS011;13517;59.320;18.042;2024-02-26T08:29:35;37.58;;;19.05;;
25657;SDS011;13517;59.320;18.042;2024-02-26T08:32:00;39.90;;;18.55;;
25657;SDS011;13517;59.320;18.042;2024-02-26T08:34:26;46.40;;;17.77;;
25657;SDS011;13517;59.320;18.042;2024-02-26T08:36:51;43.40;;;18.05;;
25657;SDS011;13517;59.320;18.042;2024-02-26T08:39:17;66.80;;;18.63;;
25657;SDS011;13517;59.320;18.042;2024-02-26T08:41:43;44.08;;;17.67;;
25657;SDS011;13517;59.320;18.042;2024-02-26T08:44:09;56.03;;;16.92;;
25657;SDS011;13517;59.320;18.042;2024-02-26T08:46:34;37.85;;;17.42;;
25657;SDS011;13517;59.320;18.042;2024-02-26T08:49:00;58.45;;;17.25;;
25657;SDS011;13517;59.320;18.042;2024-02-26T08:51:25;81.97;;;17.20;;
25657;SDS011;13517;59.320;18.042;2024-02-26T08:53:51;58.47;;;17.88;;
25657;SDS011;13517;59.320;18.042;2024-02-26T08:56:16;61.13;;;16.58;;
25657;SDS011;13517;59.320;18.042;2024-02-26T08:58:45;32.08;;;15.50;;
25657;SDS011;13517;59.320;18.042;2024-02-26T09:01:13;32.08;;;15.18;;
25657;SDS011;13517;59.320;18.042;2024-02-26T09:03:39;34.10;;;16.23;;
25657;SDS011;13517;59.320;18.042;2024-02-26T09:06:05;35.38;;;15.07;;
25657;SDS011;13517;59.320;18.042;2024-02-26T09:08:31;32.78;;;15.45;;
25657;SDS011;13517;59.320;18.042;2024-02-26T09:10:57;39.03;;;17.23;;
25657;SDS011;13517;59.320;18.042;2024-02-26T09:13:23;32.95;;;15.45;;
25657;SDS011;13517;59.320;18.042;2024-02-26T09:15:48;29.70;;;15.52;;
25657;SDS011;13517;59.320;18.042;2024-02-26T09:18:14;29.67;;;15.35;;
25657;SDS011;13517;59.320;18.042;2024-02-26T09:20:40;29.88;;;14.73;;
25657;SDS011;13517;59.320;18.042;2024-02-26T09:23:06;31.80;;;14.07;;
25657;SDS011;13517;59.320;18.042;2024-02-26T09:25:31;31.48;;;15.68;;
25657;SDS011;13517;59.320;18.042;2024-02-26T09:27:58;26.95;;;14.55;;
25657;SDS011;13517;59.320;18.042;2024-02-26T09:30:24;29.02;;;14.88;;
25657;SDS011;13517;59.320;18.042;2024-02-26T09:32:49;27.45;;;14.32;;
25657;SDS011;13517;59.320;18.042;2024-02-26T09:35:15;30.92;;;13.82;;
25657;SDS011;13517;59.320;18.042;2024-02-26T09:37:40;27.95;;;15.57;;
25657;SDS011;13517;59.320;18.042;2024-02-26T09:40:08;28.00;;;14.88;;
25657;SDS011;13517;59.320;18.042;2024-02-26T09:42:36;30.73;;;15.95;;
25657;SDS011;13517;59.320;18.042;2024-02-26T09:45:05;32.47;;;15.63;;
25657;SDS011;13517;59.320;18.042;2024-02-26T09:47:33;33.88;;;17.10;;
25657;SDS011;13517;59.320;18.042;2024-02-26T09:50:01;30.52;;;15.43;;
25657;SDS011;13517;59.320;18.042;2024-02-26T09:52:28;30.10;;;15.55;;
25657;SDS011;13517;59.320;18.042;2024-02-26T09:54:56;30.40;;;14.90;;
25657;SDS011;13517;59.320;18.042;2024-02-26T09:57:21;31.17;;;15.43;;
25657;SDS011;13517;59.320;18.042;2024-02-26T09:59:49;30.38;;;15.40;;
25657;SDS011;13517;59.320;18.042;2024-02-26T10:02:18;32.03;;;15.15;;
25657;SDS011;13517;59.320;18.042;2024-02-26T10:04:45;27.30;;;14.25;;
25657;SDS011;13517;59.320;18.042;2024-02-26T10:07:13;29.33;;;15.77;;
25657;SDS011;13517;59.320;18.042;2024-02-26T10:09:39;31.98;;;15.57;;
25657;SDS011;13517;59.320;18.042;2024-02-26T10:12:06;29.98;;;15.55;;
25657;SDS011;13517;59.320;18.042;2024-02-26T10:14:33;27.58;;;14.50;;
25657;SDS011;13517;59.320;18.042;2024-02-26T10:16:59;31.92;;;14.88;;
25657;SDS011;13517;59.320;18.042;2024-02-26T10:19:28;27.70;;;15.20;;
25657;SDS011;13517;59.320;18.042;2024-02-26T10:21:59;30.15;;;14.55;;
25657;SDS011;13517;59.320;18.042;2024-02-26T10:24:26;28.35;;;14.70;;
25657;SDS011;13517;59.320;18.042;2024-02-26T10:26:52;31.38;;;15.07;;
25657;SDS011;13517;59.320;18.042;2024-02-26T10:29:20;31.05;;;16.02;;
25657;SDS011;13517;59.320;18.042;2024-02-26T10:31:47;29.38;;;14.38;;
25657;SDS011;13517;59.320;18.042;2024-02-26T10:34:14;27.23;;;14.65;;
25657;SDS011;13517;59.320;18.042;2024-02-26T10:36:39;28.42;;;14.45;;
25657;SDS011;13517;59.320;18.042;2024-02-26T10:39:08;35.78;;;15.35;;
25657;SDS011;13517;59.320;18.042;2024-02-26T10:41:34;29.75;;;14.63;;
25657;SDS011;13517;59.320;18.042;2024-02-26T10:44:00;26.73;;;14.23;;
25657;SDS011;13517;59.320;18.042;2024-02-26T10:46:26;28.55;;;14.85;;
25657;SDS011;13517;59.320;18.042;2024-02-26T10:48:52;29.05;;;13.20;;
25657;SDS011;13517;59.320;18.042;2024-02-26T10:51:21;27.17;;;14.40;;
25657;SDS011;13517;59.320;18.042;2024-02-26T10:53:53;28.88;;;13.65;;
25657;SDS011;13517;59.320;18.042;2024-02-26T10:56:24;25.38;;;13.85;;
25657;SDS011;13517;59.320;18.042;2024-02-26T10:58:50;28.80;;;14.27;;
25657;SDS011;13517;59.320;18.042;2024-02-26T11:01:17;26.77;;;13.60;;
25657;SDS011;13517;59.320;18.042;2024-02-26T11:03:44;23.60;;;13.75;;
25657;SDS011;13517;59.320;18.042;2024-02-26T11:06:10;25.17;;;13.30;;
25657;SDS011;13517;59.320;18.042;2024-02-26T11:08:37;25.00;;;13.88;;
25657;SDS011;13517;59.320;18.042;2024-02-26T11:11:03;28.10;;;14.18;;
25657;SDS011;13517;59.320;18.042;2024-02-26T11:13:30;28.83;;;14.90;;
25657;SDS011;13517;59.320;18.042;2024-02-26T11:15:56;27.23;;;14.75;;
25657;SDS011;13517;59.320;18.042;2024-02-26T11:18:23;30.33;;;16.58;;
25657;SDS011;13517;59.320;18.042;2024-02-26T11:20:51;28.85;;;14.82;;
25657;SDS011;13517;59.320;18.042;2024-02-26T11:23:21;24.92;;;13.68;;
25657;SDS011;13517;59.320;18.042;2024-02-26T11:25:47;26.63;;;14.43;;
25657;SDS011;13517;59.320;18.042;2024-02-26T11:28:14;34.50;;;16.35;;
25657;SDS011;13517;59.320;18.042;2024-02-26T11:30:44;26.77;;;14.15;;
25657;SDS011;13517;59.320;18.042;2024-02-26T11:33:12;34.85;;;16.00;;
25657;SDS011;13517;59.320;18.042;2024-02-26T11:35:39;26.30;;;13.93;;
25657;SDS011;13517;59.320;18.042;2024-02-26T11:38:05;26.30;;;14.20;;
25657;SDS011;13517;59.320;18.042;2024-02-26T11:40:32;25.98;;;13.57;;
25657;SDS011;13517;59.320;18.042;2024-02-26T11:42:59;28.83;;;14.88;;
25657;SDS011;13517;59.320;18.042;2024-02-26T11:48:16;27.95;;;14.77;;
25657;SDS011;13517;59.320;18.042;2024-02-26T11:50:51;27.67;;;15.25;;
25657;SDS011;13517;59.320;18.042;2024-02-26T11:55:48;28.42;;;14.32;;
25657;SDS011;13517;59.320;18.042;2024-02-26T11:58:33;24.60;;;14.30;;
25657;SDS011;13517;59.320;18.042;2024-02-26T12:00:59;27.08;;;13.95;;
25657;SDS011;13517;59.320;18.042;2024-02-26T12:03:24;29.40;;;13.80;;
25657;SDS011;13517;59.320;18.042;2024-02-26T12:05:51;25.77;;;14.98;;
25657;SDS011;13517;59.320;18.042;2024-02-26T12:08:16;27.33;;;14.82;;
25657;SDS011;13517;59.320;18.042;2024-02-26T12:10:44;28.95;;;14.20;;
25657;SDS011;13517;59.320;18.042;2024-02-26T12:13:12;25.40;;;13.32;;
25657;SDS011;13517;59.320;18.042;2024-02-26T12:15:42;26.05;;;12.77;;
25657;SDS011;13517;59.320;18.042;2024-02-26T12:18:09;24.85;;;13.52;;
25657;SDS011;13517;59.320;18.042;2024-02-26T12:20:36;26.58;;;14.65;;
25657;SDS011;13517;59.320;18.042;2024-02-26T12:23:04;22.95;;;13.20;;
25657;SDS011;13517;59.320;18.042;2024-02-26T12:25:30;21.27;;;12.88;;
25657;SDS011;13517;59.320;18.042;2024-02-26T12:27:57;22.33;;;13.07;;
25657;SDS011;13517;59.320;18.042;2024-02-26T12:30:24;23.75;;;12.73;;
25657;SDS011;13517;59.320;18.042;2024-02-26T12:32:54;23.88;;;12.35;;
25657;SDS011;13517;59.320;18.042;2024-02-26T12:35:22;20.48;;;12.23;;
25657;SDS011;13517;59.320;18.042;2024-02-26T12:37:49;24.77;;;11.13;;
25657;SDS011;13517;59.320;18.042;2024-02-26T12:40:16;20.67;;;12.38;;
25657;SDS011;13517;59.320;18.042;2024-02-26T12:42:42;17.23;;;11.10;;
25657;SDS011;13517;59.320;18.042;2024-02-26T12:45:09;19.02;;;11.68;;
25657;SDS011;13517;59.320;18.042;2024-02-26T12:47:39;20.20;;;12.40;;
25657;SDS011;13517;59.320;18.042;2024-02-26T12:50:06;18.60;;;11.55;;
25657;SDS011;13517;59.320;18.042;2024-02-26T12:52:33;21.55;;;11.77;;
25657;SDS011;13517;59.320;18.042;2024-02-26T12:55:00;19.63;;;11.75;;
25657;SDS011;13517;59.320;18.042;2024-02-26T12:57:27;24.60;;;13.45;;
25657;SDS011;13517;59.320;18.042;2024-02-26T12:59:55;23.88;;;13.10;;
25657;SDS011;13517;59.320;18.042;2024-02-26T13:02:21;20.92;;;13.07;;
25657;SDS011;13517;59.320;18.042;2024-02-26T13:04:47;26.05;;;15.70;;
25657;SDS011;13517;59.320;18.042;2024-02-26T13:07:13;20.05;;;12.82;;
25657;SDS011;13517;59.320;18.042;2024-02-26T13:09:38;23.00;;;12.07;;
25657;SDS011;13517;59.320;18.042;2024-02-26T13:12:04;22.73;;;13.00;;
25657;SDS011;13517;59.320;18.042;2024-02-26T13:14:31;22.30;;;12.45;;
25657;SDS011;13517;59.320;18.042;2024-02-26T13:16:58;21.33;;;12.63;;
25657;SDS011;13517;59.320;18.042;2024-02-26T13:19:24;19.95;;;12.82;;
25657;SDS011;13517;59.320;18.042;2024-02-26T13:21:50;21.77;;;12.52;;
25657;SDS011;13517;59.320;18.042;2024-02-26T13:24:15;22.98;;;12.77;;
25657;SDS011;13517;59.320;18.042;2024-02-26T13:26:41;17.55;;;12.30;;
25657;SDS011;13517;59.320;18.042;2024-02-26T13:29:07;18.30;;;11.60;;
25657;SDS011;13517;59.320;18.042;2024-02-26T13:31:38;19.70;;;12.48;;
25657;SDS011;13517;59.320;18.042;2024-02-26T13:34:07;17.60;;;11.45;;
25657;SDS011;13517;59.320;18.042;2024-02-26T13:36:32;23.25;;;12.98;;
25657;SDS011;13517;59.320;18.042;2024-02-26T13:38:57;24.42;;;13.35;;
25657;SDS011;13517;59.320;18.042;2024-02-26T13:41:23;21.17;;;12.15;;
25657;SDS011;13517;59.320;18.042;2024-02-26T13:43:50;20.00;;;12.55;;
25657;SDS011;13517;59.320;18.042;2024-02-26T13:46:16;24.80;;;14.27;;
25657;SDS011;13517;59.320;18.042;2024-02-26T13:48:42;23.02;;;13.13;;
25657;SDS011;13517;59.320;18.042;2024-02-26T13:51:07;20.70;;;12.15;;
25657;SDS011;13517;59.320;18.042;2024-02-26T13:53:33;23.33;;;12.82;;
25657;SDS011;13517;59.320;18.042;2024-02-26T13:55:58;20.30;;;12.65;;
25657;SDS011;13517;59.320;18.042;2024-02-26T13:58:26;19.30;;;12.27;;
25657;SDS011;13517;59.320;18.042;2024-02-26T14:00:52;22.25;;;14.02;;
25657;SDS011;13517;59.320;18.042;2024-02-26T14:03:19;21.30;;;12.65;;
25657;SDS011;13517;59.320;18.042;2024-02-26T14:05:44;20.13;;;12.18;;
25657;SDS011;13517;59.320;18.042;2024-02-26T14:08:10;20.00;;;12.20;;